Observation data for Tulia on 06/27/2019      Previous  Date       Current Mesonet Observations  Soil Data  Daily Summary Page  Observations in Plain Language
KTIS 270500Z 15012KT 24/15 A3017 RMK A01 T02400152  RH  060%=      5-min Rain = 0
KTIS 270505Z 16012KT 24/15 A3017 RMK A01 T02390152  RH  061%=      5-min Rain = 0
KTIS 270510Z 16012KT 24/15 A3016 RMK A01 T02390152  RH  061%=      5-min Rain = 0
KTIS 270515Z 16012KT 24/15 A3016 RMK A01 T02390152  RH  061%=      5-min Rain = 0
KTIS 270520Z 16012KT 24/15 A3017 RMK A01 T02390152  RH  061%=      5-min Rain = 0
KTIS 270525Z 16013KT 24/15 A3017 RMK A01 T02380153  RH  061%=      5-min Rain = 0
KTIS 270530Z 16013KT 24/15 A3017 RMK A01 T02380153  RH  062%=      5-min Rain = 0
KTIS 270535Z 16014KT 24/15 A3017 RMK A01 T02380153  RH  062%=      5-min Rain = 0
KTIS 270540Z 16013G18KT 24/15 A3017 RMK A01 T02390154  RH  062%=      5-min Rain = 0
KTIS 270545Z 16014KT 24/15 A3017 RMK A01 T02380154  RH  062%=      5-min Rain = 0
KTIS 270550Z 16013G19KT 24/15 A3017 RMK A01 T02370154  RH  062%=      5-min Rain = 0
KTIS 270555Z 17013KT 24/15 A3017 RMK A01 T02370154  RH  063%=      5-min Rain = 0
KTIS 270600Z 17013G18KT 24/16 A3017 RMK A01 T02370155  RH  063%=      5-min Rain = 0
KTIS 270605Z 17013KT 24/16 A3017 RMK A01 T02370156  RH  063%=      5-min Rain = 0
KTIS 270610Z 17014KT 24/16 A3017 RMK A01 T02360156  RH  064%=      5-min Rain = 0
KTIS 270615Z 17014G20KT 24/16 A3016 RMK A01 T02350157  RH  064%=      5-min Rain = 0
KTIS 270620Z 17015G20KT 24/16 A3016 RMK A01 T02350157  RH  065%=      5-min Rain = 0
KTIS 270625Z 17015KT 24/16 A3016 RMK A01 T02350158  RH  065%=      5-min Rain = 0
KTIS 270630Z 17015KT 24/16 A3016 RMK A01 T02350159  RH  065%=      5-min Rain = 0
KTIS 270635Z 17015KT 23/16 A3016 RMK A01 T02340160  RH  066%=      5-min Rain = 0
KTIS 270640Z 17014G19KT 23/16 A3016 RMK A01 T02340161  RH  067%=      5-min Rain = 0
KTIS 270645Z 17013G18KT 23/16 A3017 RMK A01 T02340162  RH  067%=      5-min Rain = 0
KTIS 270650Z 17013KT 23/16 A3017 RMK A01 T02340163  RH  068%=      5-min Rain = 0
KTIS 270655Z 17012G17KT 23/16 A3017 RMK A01 T02320164  RH  069%=      5-min Rain = 0
KTIS 270700Z 17013G19KT 23/16 A3017 RMK A01 T02320164  RH  069%=      5-min Rain = 0
KTIS 270705Z 17014G20KT 23/17 A3017 RMK A01 T02330165  RH  069%=      5-min Rain = 0
KTIS 270710Z 17014G20KT 23/17 A3017 RMK A01 T02330165  RH  069%=      5-min Rain = 0
KTIS 270715Z 18014G19KT 23/17 A3018 RMK A01 T02330165  RH  069%=      5-min Rain = 0
KTIS 270720Z 20012KT 23/17 A3019 RMK A01 T02320165  RH  069%=      5-min Rain = 0
KTIS 270725Z 21012KT 23/17 A302 RMK A01 T02310165  RH  070%=      5-min Rain = 0
KTIS 270730Z 21012KT 23/17 A302 RMK A01 T02310165  RH  070%=      5-min Rain = 0
KTIS 270735Z 20013KT 23/17 A302 RMK A01 T02300166  RH  070%=      5-min Rain = 0
KTIS 270740Z 19012KT 23/17 A302 RMK A01 T02290166  RH  071%=      5-min Rain = 0
KTIS 270745Z 19011G17KT 23/17 A3019 RMK A01 T02280167  RH  072%=      5-min Rain = 0
KTIS 270750Z 19012G18KT 23/17 A3019 RMK A01 T02270168  RH  073%=      5-min Rain = 0
KTIS 270755Z 19012KT 23/17 A3019 RMK A01 T02260168  RH  073%=      5-min Rain = 0
KTIS 270800Z 18012KT 23/17 A3018 RMK A01 T02250169  RH  074%=      5-min Rain = 0
KTIS 270805Z 19013G18KT 23/17 A3019 RMK A01 T02250169  RH  074%=      5-min Rain = 0
KTIS 270810Z 19013KT 23/17 A3018 RMK A01 T02250169  RH  074%=      5-min Rain = 0
KTIS 270815Z 19012KT 23/17 A3018 RMK A01 T02250170  RH  075%=      5-min Rain = 0
KTIS 270820Z 19011KT 22/17 A3018 RMK A01 T02240170  RH  075%=      5-min Rain = 0
KTIS 270825Z 19012KT 22/17 A3018 RMK A01 T02230170  RH  076%=      5-min Rain = 0
KTIS 270830Z 18012KT 22/17 A3018 RMK A01 T02230171  RH  076%=      5-min Rain = 0
KTIS 270835Z 19011G16KT 22/17 A3018 RMK A01 T02230171  RH  076%=      5-min Rain = 0
KTIS 270840Z 19011KT 22/17 A3018 RMK A01 T02230171  RH  076%=      5-min Rain = 0
KTIS 270845Z 19011KT 22/17 A3018 RMK A01 T02230171  RH  076%=      5-min Rain = 0
KTIS 270850Z 20011KT 22/17 A3018 RMK A01 T02220171  RH  077%=      5-min Rain = 0
KTIS 270855Z 20011G16KT 22/17 A3018 RMK A01 T02220171  RH  077%=      5-min Rain = 0
KTIS 270900Z 19011KT 22/17 A3018 RMK A01 T02220171  RH  077%=      5-min Rain = 0
KTIS 270905Z 19012KT 22/17 A3018 RMK A01 T02210171  RH  077%=      5-min Rain = 0
KTIS 270910Z 19011KT 22/17 A3018 RMK A01 T02200171  RH  077%=      5-min Rain = 0
KTIS 270915Z 19011KT 22/17 A3018 RMK A01 T02190171  RH  078%=      5-min Rain = 0
KTIS 270920Z 19011KT 22/17 A3018 RMK A01 T02190171  RH  078%=      5-min Rain = 0
KTIS 270925Z 19010KT 22/17 A3017 RMK A01 T02170170  RH  078%=      5-min Rain = 0
KTIS 270930Z 19010KT 22/17 A3017 RMK A01 T02160170  RH  079%=      5-min Rain = 0
KTIS 270935Z 19010KT 22/17 A3017 RMK A01 T02160170  RH  079%=      5-min Rain = 0
KTIS 270940Z 20010KT 22/17 A3017 RMK A01 T02150170  RH  079%=      5-min Rain = 0
KTIS 270945Z 19010KT 22/17 A3017 RMK A01 T02150170  RH  080%=      5-min Rain = 0
KTIS 270950Z 19009G14KT 21/17 A3017 RMK A01 T02140170  RH  080%=      5-min Rain = 0
KTIS 270955Z 18009KT 21/17 A3017 RMK A01 T02140170  RH  080%=      5-min Rain = 0
KTIS 271000Z 19008KT 21/17 A3016 RMK A01 T02130170  RH  080%=      5-min Rain = 0
KTIS 271005Z 19009KT 21/17 A3016 RMK A01 T02130169  RH  080%=      5-min Rain = 0
KTIS 271010Z 19009KT 21/17 A3016 RMK A01 T02140170  RH  080%=      5-min Rain = 0
KTIS 271015Z 19008KT 21/17 A3016 RMK A01 T02140170  RH  080%=      5-min Rain = 0
KTIS 271020Z 19009KT 22/17 A3016 RMK A01 T02150170  RH  079%=      5-min Rain = 0
KTIS 271025Z 19009KT 22/17 A3016 RMK A01 T02150169  RH  079%=      5-min Rain = 0
KTIS 271030Z 19009KT 22/17 A3016 RMK A01 T02160169  RH  079%=      5-min Rain = 0
KTIS 271035Z 19008KT 22/17 A3016 RMK A01 T02150169  RH  079%=      5-min Rain = 0
KTIS 271040Z 19009KT 22/17 A3017 RMK A01 T02150169  RH  079%=      5-min Rain = 0
KTIS 271045Z 19009KT 22/17 A3017 RMK A01 T02160169  RH  079%=      5-min Rain = 0
KTIS 271050Z 20010KT 22/17 A3017 RMK A01 T02160169  RH  079%=      5-min Rain = 0
KTIS 271055Z 19011KT 22/17 A3017 RMK A01 T02160169  RH  079%=      5-min Rain = 0
KTIS 271100Z 19011KT 22/17 A3017 RMK A01 T02170170  RH  078%=      5-min Rain = 0
KTIS 271105Z 18011KT 22/17 A3017 RMK A01 T02160170  RH  079%=      5-min Rain = 0
KTIS 271110Z 18010KT 22/17 A3017 RMK A01 T02160169  RH  079%=      5-min Rain = 0
KTIS 271115Z 18011KT 22/17 A3017 RMK A01 T02150169  RH  079%=      5-min Rain = 0
KTIS 271120Z 18010KT 22/17 A3017 RMK A01 T02150170  RH  079%=      5-min Rain = 0
KTIS 271125Z 18010KT 22/17 A3017 RMK A01 T02150170  RH  079%=      5-min Rain = 0
KTIS 271130Z 19010KT 21/17 A3018 RMK A01 T02140169  RH  079%=      5-min Rain = 0
KTIS 271135Z 18010KT 21/17 A3018 RMK A01 T02140169  RH  079%=      5-min Rain = 0
KTIS 271140Z 18009KT 21/17 A3018 RMK A01 T02140169  RH  080%=      5-min Rain = 0
KTIS 271145Z 18009KT 21/17 A3018 RMK A01 T02130169  RH  080%=      5-min Rain = 0
KTIS 271150Z 18010KT 21/17 A3017 RMK A01 T02120169  RH  080%=      5-min Rain = 0
KTIS 271155Z 18010KT 21/17 A3017 RMK A01 T02120169  RH  081%=      5-min Rain = 0
KTIS 271200Z 18010KT 21/17 A3017 RMK A01 T02110169  RH  081%=      5-min Rain = 0
KTIS 271205Z 18010KT 21/17 A3017 RMK A01 T02100169  RH  081%=      5-min Rain = 0
KTIS 271210Z 19009KT 21/17 A3017 RMK A01 T02110169  RH  081%=      5-min Rain = 0
KTIS 271215Z 19009KT 21/17 A3017 RMK A01 T02110169  RH  081%=      5-min Rain = 0
KTIS 271220Z 19009KT 21/17 A3018 RMK A01 T02110169  RH  081%=      5-min Rain = 0
KTIS 271225Z 19011KT 21/17 A3018 RMK A01 T02110170  RH  081%=      5-min Rain = 0
KTIS 271230Z 19011KT 21/17 A3018 RMK A01 T02110170  RH  081%=      5-min Rain = 0
KTIS 271235Z 19012KT 21/17 A3018 RMK A01 T02120170  RH  081%=      5-min Rain = 0
KTIS 271240Z 19012KT 21/17 A3018 RMK A01 T02130171  RH  081%=      5-min Rain = 0
KTIS 271245Z 19012KT 22/17 A3018 RMK A01 T02150171  RH  080%=      5-min Rain = 0
KTIS 271250Z 20012G17KT 22/17 A3019 RMK A01 T02160172  RH  080%=      5-min Rain = 0
KTIS 271255Z 20012KT 22/17 A3019 RMK A01 T02180172  RH  079%=      5-min Rain = 0
KTIS 271300Z 21014KT 22/17 A3019 RMK A01 T02220173  RH  078%=      5-min Rain = 0
KTIS 271305Z 20015KT 22/17 A3019 RMK A01 T02240173  RH  076%=      5-min Rain = 0
KTIS 271310Z 21014KT 23/17 A3019 RMK A01 T02260173  RH  076%=      5-min Rain = 0
KTIS 271315Z 21014G19KT 23/17 A3019 RMK A01 T02280174  RH  075%=      5-min Rain = 0
KTIS 271320Z 21015G20KT 23/17 A302 RMK A01 T02290174  RH  075%=      5-min Rain = 0
KTIS 271325Z 21016KT 23/17 A302 RMK A01 T02300174  RH  075%=      5-min Rain = 0
KTIS 271330Z 21015G21KT 23/17 A302 RMK A01 T02300174  RH  074%=      5-min Rain = 0
KTIS 271335Z 21016KT 23/17 A302 RMK A01 T02320174  RH  073%=      5-min Rain = 0
KTIS 271340Z 21017G23KT 24/17 A302 RMK A01 T02350174  RH  072%=      5-min Rain = 0
KTIS 271345Z 20018G23KT 23/17 A302 RMK A01 T02310173  RH  073%=      5-min Rain = 0
KTIS 271350Z 21015G21KT 23/17 A302 RMK A01 T02300173  RH  074%=      5-min Rain = 0
KTIS 271355Z 21015G20KT 23/17 A302 RMK A01 T02340174  RH  073%=      5-min Rain = 0
KTIS 271400Z 21016G21KT 24/18 A3021 RMK A01 T02390175  RH  071%=      5-min Rain = 0
KTIS 271405Z 21016G21KT 24/18 A3021 RMK A01 T02430175  RH  069%=      5-min Rain = 0
KTIS 271410Z 21017G22KT 24/18 A3021 RMK A01 T02430175  RH  069%=      5-min Rain = 0
KTIS 271415Z 21018G24KT 24/17 A3022 RMK A01 T02440174  RH  068%=      5-min Rain = 0
KTIS 271420Z 21018G23KT 25/17 A3022 RMK A01 T02460173  RH  067%=      5-min Rain = 0
KTIS 271425Z 20018KT 25/17 A3022 RMK A01 T02490174  RH  066%=      5-min Rain = 0
KTIS 271430Z 22018G24KT 25/17 A3022 RMK A01 T02500173  RH  065%=      5-min Rain = 0
KTIS 271435Z 22018KT 25/17 A3022 RMK A01 T02530172  RH  064%=      5-min Rain = 0
KTIS 271440Z 22017G22KT 26/17 A3022 RMK A01 T02550171  RH  063%=      5-min Rain = 0
KTIS 271445Z 22017KT 26/17 A3022 RMK A01 T02570172  RH  063%=      5-min Rain = 0
KTIS 271450Z 23016KT 26/17 A3022 RMK A01 T02590171  RH  061%=      5-min Rain = 0
KTIS 271455Z 23018G23KT 26/17 A3022 RMK A01 T02550169  RH  062%=      5-min Rain = 0
KTIS 271500Z 22016KT 26/17 A3022 RMK A01 T02570170  RH  062%=      5-min Rain = 0
KTIS 271505Z 23017G22KT 26/17 A3022 RMK A01 T02570168  RH  060%=      5-min Rain = 0
KTIS 271510Z 23018G23KT 26/17 A3022 RMK A01 T02600169  RH  060%=      5-min Rain = 0
KTIS 271515Z 22016G21KT 26/17 A3022 RMK A01 T02630168  RH  059%=      5-min Rain = 0
KTIS 271520Z 22016G21KT 27/17 A3022 RMK A01 T02670168  RH  058%=      5-min Rain = 0
KTIS 271525Z 22016KT 27/17 A3022 RMK A01 T02650168  RH  058%=      5-min Rain = 0
KTIS 271530Z 22015G20KT 27/17 A3022 RMK A01 T02690170  RH  057%=      5-min Rain = 0
KTIS 271535Z 22014G23KT 27/17 A3022 RMK A01 T02710169  RH  056%=      5-min Rain = 0
KTIS 271540Z 21016G21KT 27/17 A3022 RMK A01 T02710167  RH  056%=      5-min Rain = 0
KTIS 271545Z 22016KT 27/17 A3022 RMK A01 T02730167  RH  055%=      5-min Rain = 0
KTIS 271550Z 22015G22KT 28/17 A3022 RMK A01 T02750165  RH  054%=      5-min Rain = 0
KTIS 271555Z 20014G19KT 28/17 A3022 RMK A01 T02790165  RH  052%=      5-min Rain = 0
KTIS 271600Z 22013G18KT 28/17 A3022 RMK A01 T02820165  RH  051%=      5-min Rain = 0
KTIS 271605Z 21014KT 28/16 A3022 RMK A01 T02820164  RH  051%=      5-min Rain = 0
KTIS 271610Z 21014KT 28/16 A3022 RMK A01 T02800163  RH  051%=      5-min Rain = 0
KTIS 271615Z 20013G19KT 29/16 A3022 RMK A01 T02850162  RH  050%=      5-min Rain = 0
KTIS 271620Z 22013G20KT 28/16 A3022 RMK A01 T02830161  RH  050%=      5-min Rain = 0
KTIS 271625Z 21013G18KT 29/16 A3022 RMK A01 T02860161  RH  049%=      5-min Rain = 0
KTIS 271630Z 21014G19KT 29/16 A3022 RMK A01 T02870159  RH  048%=      5-min Rain = 0
KTIS 271635Z 19012KT 29/16 A3022 RMK A01 T02880158  RH  047%=      5-min Rain = 0
KTIS 271640Z 20013G19KT 29/16 A3022 RMK A01 T02900160  RH  048%=      5-min Rain = 0
KTIS 271645Z 20012KT 29/16 A3022 RMK A01 T02920160  RH  047%=      5-min Rain = 0
KTIS 271650Z 19012G19KT 30/16 A3022 RMK A01 T02950158  RH  046%=      5-min Rain = 0
KTIS 271655Z 19011G16KT 30/16 A3022 RMK A01 T02980159  RH  045%=      5-min Rain = 0
KTIS 271700Z 20014G19KT 30/16 A3022 RMK A01 T02950156  RH  045%=      5-min Rain = 0
KTIS 271705Z 20012G18KT 30/15 A3022 RMK A01 T02950154  RH  044%=      5-min Rain = 0
KTIS 271710Z 20010G15KT 30/16 A3022 RMK A01 T03000155  RH  043%=      5-min Rain = 0
KTIS 271715Z 19014G19KT 30/15 A3022 RMK A01 T03000149  RH  042%=      5-min Rain = 0
KTIS 271720Z 20015G22KT 30/15 A3022 RMK A01 T03000151  RH  042%=      5-min Rain = 0
KTIS 271725Z 20014G22KT 30/15 A3022 RMK A01 T02980150  RH  043%=      5-min Rain = 0
KTIS 271730Z 19013G19KT 30/15 A3022 RMK A01 T03000152  RH  043%=      5-min Rain = 0
KTIS 271735Z 19014G19KT 30/14 A3022 RMK A01 T03000144  RH  040%=      5-min Rain = 0
KTIS 271740Z 20012G18KT 30/15 A3022 RMK A01 T03030151  RH  041%=      5-min Rain = 0
KTIS 271745Z 19012G19KT 30/14 A3022 RMK A01 T03040143  RH  039%=      5-min Rain = 0
KTIS 271750Z 19011G17KT 31/15 A3022 RMK A01 T03060151  RH  041%=      5-min Rain = 0
KTIS 271755Z 19015G21KT 31/15 A3021 RMK A01 T03070145  RH  039%=      5-min Rain = 0
KTIS 271800Z 18014KT 31/14 A3021 RMK A01 T03090143  RH  038%=      5-min Rain = 0
KTIS 271805Z 19014KT 31/14 A3021 RMK A01 T03070142  RH  038%=      5-min Rain = 0
KTIS 271810Z 20015G20KT 31/14 A3021 RMK A01 T03080140  RH  037%=      5-min Rain = 0
KTIS 271815Z 18013G19KT 31/14 A3021 RMK A01 T03090144  RH  038%=      5-min Rain = 0
KTIS 271820Z 21014G19KT 31/13 A3021 RMK A01 T03110130  RH  034%=      5-min Rain = 0
KTIS 271825Z 20012G18KT 31/14 A302 RMK A01 T03120138  RH  036%=      5-min Rain = 0
KTIS 271830Z 16013G18KT 31/14 A302 RMK A01 T03120143  RH  037%=      5-min Rain = 0
KTIS 271835Z 16013G20KT 31/14 A302 RMK A01 T03090142  RH  038%=      5-min Rain = 0
KTIS 271840Z 19014G20KT 32/12 A302 RMK A01 T03150121  RH  032%=      5-min Rain = 0
KTIS 271845Z 17014G19KT 32/13 A302 RMK A01 T03170131  RH  033%=      5-min Rain = 0
KTIS 271850Z 18015G21KT 32/13 A302 RMK A01 T03170132  RH  034%=      5-min Rain = 0
KTIS 271855Z 19012G18KT 32/12 A302 RMK A01 T03210123  RH  031%=      5-min Rain = 0
KTIS 271900Z 18010G18KT 32/14 A302 RMK A01 T03200144  RH  036%=      5-min Rain = 0
KTIS 271905Z 17012G17KT 32/15 A3019 RMK A01 T03180145  RH  037%=      5-min Rain = 0
KTIS 271910Z 18011G17KT 32/15 A3019 RMK A01 T03190145  RH  036%=      5-min Rain = 0
KTIS 271915Z 18013G20KT 32/14 A3019 RMK A01 T03240142  RH  035%=      5-min Rain = 0
KTIS 271920Z 17012KT 32/14 A3019 RMK A01 T03240144  RH  035%=      5-min Rain = 0
KTIS 271925Z 18012G17KT 33/14 A3019 RMK A01 T03250144  RH  035%=      5-min Rain = 0
KTIS 271930Z 18015G21KT 32/14 A3019 RMK A01 T03240140  RH  034%=      5-min Rain = 0
KTIS 271935Z 16012G17KT 32/15 A3018 RMK A01 T03230145  RH  036%=      5-min Rain = 0
KTIS 271940Z 19013G18KT 32/14 A3018 RMK A01 T03230142  RH  035%=      5-min Rain = 0
KTIS 271945Z 17013KT 33/14 A3018 RMK A01 T03310142  RH  034%=      5-min Rain = 0
KTIS 271950Z 16015KT 32/15 A3018 RMK A01 T03230150  RH  037%=      5-min Rain = 0
KTIS 271955Z 17014G20KT 33/15 A3018 RMK A01 T03280148  RH  035%=      5-min Rain = 0
KTIS 272000Z 17015G24KT 33/14 A3017 RMK A01 T03260144  RH  035%=      5-min Rain = 0
KTIS 272005Z 17013G21KT 32/14 A3017 RMK A01 T03220142  RH  035%=      5-min Rain = 0
KTIS 272010Z 19016G23KT 33/14 A3017 RMK A01 T03260139  RH  034%=      5-min Rain = 0
KTIS 272015Z 17015G20KT 33/14 A3017 RMK A01 T03270143  RH  034%=      5-min Rain = 0
KTIS 272020Z 16016G21KT 33/15 A3017 RMK A01 T03290145  RH  035%=      5-min Rain = 0
KTIS 272025Z 18016G23KT 33/14 A3017 RMK A01 T03280144  RH  034%=      5-min Rain = 0
KTIS 272030Z 17013G19KT 33/14 A3016 RMK A01 T03290140  RH  033%=      5-min Rain = 0
KTIS 272035Z 19016G22KT 33/14 A3016 RMK A01 T03300138  RH  033%=      5-min Rain = 0
KTIS 272040Z 17015G23KT 33/14 A3016 RMK A01 T03290139  RH  033%=      5-min Rain = 0
KTIS 272045Z 17013G19KT 33/14 A3016 RMK A01 T03290138  RH  033%=      5-min Rain = 0
KTIS 272050Z 16015G20KT 33/14 A3016 RMK A01 T03290144  RH  034%=      5-min Rain = 0
KTIS 272055Z 16014G19KT 33/14 A3016 RMK A01 T03260141  RH  034%=      5-min Rain = 0
KTIS 272100Z 17015G20KT 33/14 A3015 RMK A01 T03320142  RH  033%=      5-min Rain = 0
KTIS 272105Z 18014G20KT 33/14 A3015 RMK A01 T03320141  RH  033%=      5-min Rain = 0
KTIS 272110Z 19015G21KT 33/14 A3015 RMK A01 T03330141  RH  033%=      5-min Rain = 0
KTIS 272115Z 18016G25KT 34/14 A3015 RMK A01 T03370142  RH  032%=      5-min Rain = 0
KTIS 272120Z 19017G22KT 33/14 A3015 RMK A01 T03330141  RH  033%=      5-min Rain = 0
KTIS 272125Z 18017G22KT 33/15 A3014 RMK A01 T03330148  RH  034%=      5-min Rain = 0
KTIS 272130Z 18016G21KT 33/15 A3014 RMK A01 T03340145  RH  033%=      5-min Rain = 0
KTIS 272135Z 18014G20KT 34/14 A3014 RMK A01 T03350143  RH  033%=      5-min Rain = 0
KTIS 272140Z 18013G21KT 33/15 A3014 RMK A01 T03330148  RH  034%=      5-min Rain = 0
KTIS 272145Z 17017G23KT 33/14 A3014 RMK A01 T03300142  RH  034%=      5-min Rain = 0
KTIS 272150Z 15016G21KT 33/15 A3014 RMK A01 T03260146  RH  035%=      5-min Rain = 0
KTIS 272155Z 18015G21KT 33/14 A3013 RMK A01 T03300137  RH  032%=      5-min Rain = 0
KTIS 272200Z 17017G23KT 33/14 A3013 RMK A01 T03320138  RH  032%=      5-min Rain = 0
KTIS 272205Z 18017G23KT 33/14 A3013 RMK A01 T03300142  RH  034%=      5-min Rain = 0
KTIS 272210Z 17015G20KT 33/15 A3013 RMK A01 T03290148  RH  035%=      5-min Rain = 0
KTIS 272215Z 18015G20KT 33/15 A3012 RMK A01 T03270145  RH  035%=      5-min Rain = 0
KTIS 272220Z 17016G22KT 33/15 A3012 RMK A01 T03310146  RH  034%=      5-min Rain = 0
KTIS 272225Z 16015G21KT 32/15 A3012 RMK A01 T03240149  RH  036%=      5-min Rain = 0
KTIS 272230Z 16016G24KT 32/14 A3012 RMK A01 T03200144  RH  036%=      5-min Rain = 0
KTIS 272235Z 18016G23KT 32/14 A3012 RMK A01 T03230137  RH  034%=      5-min Rain = 0
KTIS 272240Z 16015G22KT 33/15 A3012 RMK A01 T03260146  RH  035%=      5-min Rain = 0
KTIS 272245Z 16017G23KT 32/14 A3012 RMK A01 T03210143  RH  035%=      5-min Rain = 0
KTIS 272250Z 17015G21KT 33/14 A3012 RMK A01 T03250142  RH  035%=      5-min Rain = 0
KTIS 272255Z 18015G21KT 33/13 A3012 RMK A01 T03310133  RH  031%=      5-min Rain = 0
KTIS 272300Z 18013KT 33/14 A3013 RMK A01 T03250138  RH  034%=      5-min Rain = 0
KTIS 272305Z 17016G21KT 32/14 A3013 RMK A01 T03190141  RH  035%=      5-min Rain = 0
KTIS 272310Z 16015G20KT 31/14 A3013 RMK A01 T03140143  RH  037%=      5-min Rain = 0
KTIS 272315Z 16013G19KT 32/14 A3013 RMK A01 T03170141  RH  036%=      5-min Rain = 0
KTIS 272320Z 17015G21KT 32/14 A3013 RMK A01 T03180136  RH  035%=      5-min Rain = 0
KTIS 272325Z 18013G19KT 32/14 A3013 RMK A01 T03190137  RH  035%=      5-min Rain = 0
KTIS 272330Z 18014KT 32/14 A3013 RMK A01 T03170137  RH  035%=      5-min Rain = 0
KTIS 272335Z 17014G19KT 31/14 A3013 RMK A01 T03140143  RH  037%=      5-min Rain = 0
KTIS 272340Z 17015KT 31/14 A3013 RMK A01 T03120142  RH  037%=      5-min Rain = 0
KTIS 272345Z 17015KT 31/14 A3012 RMK A01 T03130138  RH  036%=      5-min Rain = 0
KTIS 272350Z 17013G18KT 31/14 A3012 RMK A01 T03120142  RH  037%=      5-min Rain = 0
KTIS 272355Z 18013G19KT 31/14 A3013 RMK A01 T03120139  RH  036%=      5-min Rain = 0
KTIS 280000Z 17014G19KT 31/14 A3013 RMK A01 T03110141  RH  037%=      5-min Rain = 0
KTIS 280005Z 18013KT 31/14 A3013 RMK A01 T03120140  RH  037%=      5-min Rain = 0
KTIS 280010Z 18013G18KT 31/14 A3013 RMK A01 T03100143  RH  038%=      5-min Rain = 0
KTIS 280015Z 17013KT 31/14 A3013 RMK A01 T03090143  RH  038%=      5-min Rain = 0
KTIS 280020Z 17015KT 31/14 A3013 RMK A01 T03070144  RH  039%=      5-min Rain = 0
KTIS 280025Z 17014KT 31/14 A3013 RMK A01 T03060144  RH  039%=      5-min Rain = 0
KTIS 280030Z 17012G17KT 31/14 A3013 RMK A01 T03060143  RH  039%=      5-min Rain = 0
KTIS 280035Z 18013KT 31/14 A3013 RMK A01 T03060143  RH  039%=      5-min Rain = 0
KTIS 280040Z 18013KT 31/14 A3013 RMK A01 T03070142  RH  038%=      5-min Rain = 0
KTIS 280045Z 18014KT 31/14 A3013 RMK A01 T03060140  RH  038%=      5-min Rain = 0
KTIS 280050Z 17013KT 30/14 A3013 RMK A01 T03040139  RH  038%=      5-min Rain = 0
KTIS 280055Z 18013KT 30/14 A3013 RMK A01 T03030140  RH  038%=      5-min Rain = 0
KTIS 280100Z 17011KT 30/14 A3014 RMK A01 T03010141  RH  039%=      5-min Rain = 0
KTIS 280105Z 16011KT 30/14 A3013 RMK A01 T02990143  RH  040%=      5-min Rain = 0
KTIS 280110Z 16010KT 29/15 A3013 RMK A01 T02930145  RH  042%=      5-min Rain = 0
KTIS 280115Z 16010KT 29/15 A3013 RMK A01 T02910145  RH  043%=      5-min Rain = 0
KTIS 280120Z 16010KT 29/15 A3013 RMK A01 T02900145  RH  043%=      5-min Rain = 0
KTIS 280125Z 16011KT 29/15 A3013 RMK A01 T02900145  RH  043%=      5-min Rain = 0
KTIS 280130Z 16010KT 29/15 A3014 RMK A01 T02880147  RH  044%=      5-min Rain = 0
KTIS 280135Z 16010KT 29/15 A3014 RMK A01 T02850148  RH  045%=      5-min Rain = 0
KTIS 280140Z 16010KT 29/15 A3014 RMK A01 T02850147  RH  045%=      5-min Rain = 0
KTIS 280145Z 15008KT 28/15 A3014 RMK A01 T02820147  RH  046%=      5-min Rain = 0
KTIS 280150Z 16008KT 28/15 A3014 RMK A01 T02790148  RH  047%=      5-min Rain = 0
KTIS 280155Z 16007KT 28/15 A3014 RMK A01 T02760149  RH  048%=      5-min Rain = 0
KTIS 280200Z 16007KT 27/15 A3015 RMK A01 T02730149  RH  049%=      5-min Rain = 0
KTIS 280205Z 16007KT 27/15 A3015 RMK A01 T02720149  RH  049%=      5-min Rain = 0
KTIS 280210Z 16006KT 27/15 A3015 RMK A01 T02700151  RH  050%=      5-min Rain = 0
KTIS 280215Z 16006KT 27/15 A3015 RMK A01 T02680150  RH  050%=      5-min Rain = 0
KTIS 280220Z 17005KT 27/15 A3016 RMK A01 T02670151  RH  051%=      5-min Rain = 0
KTIS 280225Z 19003KT 27/15 A3017 RMK A01 T02650147  RH  051%=      5-min Rain = 0
KTIS 280230Z 20002KT 27/14 A3017 RMK A01 T02670143  RH  049%=      5-min Rain = 0
KTIS 280235Z 25002KT 27/14 A3018 RMK A01 T02660143  RH  049%=      5-min Rain = 0
KTIS 280240Z 27002KT 26/14 A3019 RMK A01 T02600143  RH  050%=      5-min Rain = 0
KTIS 280245Z 26002KT 26/14 A3019 RMK A01 T02550142  RH  052%=      5-min Rain = 0
KTIS 280250Z 24002KT 25/14 A3019 RMK A01 T02540142  RH  052%=      5-min Rain = 0
KTIS 280255Z 21003KT 26/14 A3019 RMK A01 T02570142  RH  051%=      5-min Rain = 0
KTIS 280300Z 20003KT 26/14 A3019 RMK A01 T02600143  RH  051%=      5-min Rain = 0
KTIS 280305Z 19004KT 26/15 A3019 RMK A01 T02570152  RH  055%=      5-min Rain = 0
KTIS 280310Z 18005KT 25/16 A3019 RMK A01 T02530159  RH  058%=      5-min Rain = 0
KTIS 280315Z 17005KT 25/16 A3019 RMK A01 T02520163  RH  061%=      5-min Rain = 0
KTIS 280320Z 17006KT 25/16 A302 RMK A01 T02490158  RH  059%=      5-min Rain = 0
KTIS 280325Z 17005KT 25/16 A302 RMK A01 T02480156  RH  059%=      5-min Rain = 0
KTIS 280330Z 19004KT 25/15 A302 RMK A01 T02490149  RH  056%=      5-min Rain = 0
KTIS 280335Z 25004KT 25/14 A3021 RMK A01 T02490144  RH  054%=      5-min Rain = 0
KTIS 280340Z 28006KT 25/15 A3022 RMK A01 T02480145  RH  055%=      5-min Rain = 0
KTIS 280345Z 28005KT 25/14 A3022 RMK A01 T02510144  RH  054%=      5-min Rain = 0
KTIS 280350Z 28006KT 26/14 A3022 RMK A01 T02580138  RH  050%=      5-min Rain = 0
KTIS 280355Z 25005KT 27/14 A3023 RMK A01 T02680138  RH  047%=      5-min Rain = 0
KTIS 280400Z 24007KT 27/14 A3023 RMK A01 T02740139  RH  045%=      5-min Rain = 0
KTIS 280405Z 26005KT 27/14 A3023 RMK A01 T02740140  RH  045%=      5-min Rain = 0
KTIS 280410Z 23004KT 27/14 A3023 RMK A01 T02730140  RH  046%=      5-min Rain = 0
KTIS 280415Z 29005KT 27/14 A3024 RMK A01 T02720138  RH  045%=      5-min Rain = 0
KTIS 280420Z 28003KT 27/14 A3024 RMK A01 T02690136  RH  045%=      5-min Rain = 0
KTIS 280425Z 28003KT 27/13 A3023 RMK A01 T02660133  RH  046%=      5-min Rain = 0
KTIS 280430Z 29001KT 26/13 A3023 RMK A01 T02630132  RH  046%=      5-min Rain = 0
KTIS 280435Z 15002KT 26/14 A3023 RMK A01 T02600140  RH  050%=      5-min Rain = 0
KTIS 280440Z 12003KT 25/15 A3023 RMK A01 T02490148  RH  056%=      5-min Rain = 0
KTIS 280445Z 15004KT 25/15 A3023 RMK A01 T02500151  RH  057%=      5-min Rain = 0
KTIS 280450Z 18004KT 25/15 A3023 RMK A01 T02460150  RH  058%=      5-min Rain = 0
KTIS 280455Z 19006KT 25/14 A3022 RMK A01 T02460142  RH  054%=      5-min Rain = 0

Page generated in 0.0093 seconds.